createdAt,value
2018-02-15T00:09:41.735Z,98250.70
2018-02-15T00:30:16.303Z,98241.95
2018-02-15T00:50:50.336Z,98210.92
2018-02-15T01:11:24.550Z,98176.74
2018-02-15T01:32:01.542Z,98147.06
2018-02-15T01:52:36.811Z,98134.43
2018-02-15T02:13:13.004Z,98145.06
2018-02-15T02:33:49.196Z,98118.25
2018-02-15T02:54:25.390Z,98093.28
2018-02-15T03:14:56.666Z,98098.30
2018-02-15T03:35:31.018Z,98076.05
2018-02-15T03:56:04.754Z,98059.88
2018-02-15T04:16:39.411Z,98038.98
2018-02-15T04:37:12.546Z,98058.91
2018-02-15T04:57:44.732Z,98050.94
2018-02-15T05:18:20.245Z,98012.36
2018-02-15T05:38:54.351Z,98032.67
2018-02-15T05:59:28.395Z,98048.04
2018-02-15T06:20:04.611Z,98057.27
2018-02-15T06:40:39.862Z,98033.11
2018-02-15T07:01:15.133Z,98035.05
2018-02-15T07:21:49.793Z,98024.58
2018-02-15T07:42:23.526Z,98034.50
2018-02-15T08:03:01.873Z,98053.36
2018-02-15T08:23:38.063Z,98026.52
2018-02-15T08:44:15.712Z,98060.84
2018-02-15T09:04:49.526Z,98074.83
2018-02-15T09:25:24.799Z,98071.20
2018-02-15T09:45:57.921Z,98103.27
2018-02-15T10:06:33.189Z,98082.38
2018-02-15T10:27:09.718Z,98067.78
2018-02-15T10:47:44.007Z,98042.94
2018-02-15T11:08:19.154Z,98056.08
2018-02-15T11:28:53.383Z,98062.91
2018-02-15T11:49:27.399Z,98080.13
2018-02-15T12:10:00.520Z,98096.19
2018-02-15T12:30:35.792Z,98093.54
2018-02-15T12:51:10.420Z,98075.03
2018-02-15T13:11:49.101Z,98098.50
2018-02-15T13:32:25.608Z,98116.28
2018-02-15T13:53:05.785Z,98108.97
2018-02-15T14:13:40.137Z,98116.15
2018-02-15T14:34:12.612Z,98143.29
2018-02-15T14:54:46.736Z,98142.27
2018-02-15T15:15:21.650Z,98163.18
2018-02-15T15:35:56.228Z,98187.00
2018-02-15T15:56:30.395Z,98211.23
2018-02-15T16:17:04.402Z,98219.09
2018-02-15T16:37:35.676Z,98240.37
2018-02-15T16:58:07.873Z,98268.50
2018-02-15T17:18:42.833Z,98301.78
2018-02-15T17:39:18.110Z,98330.06
2018-02-15T17:59:52.765Z,98332.31
2018-02-15T18:20:28.648Z,98338.84
2018-02-15T18:41:02.145Z,98360.48
2018-02-15T19:01:35.199Z,98369.47
2018-02-15T19:22:10.579Z,98367.98
2018-02-15T19:36:46.930Z,98361.05
2018-02-15T19:57:22.257Z,98402.48
2018-02-15T20:17:57.474Z,98405.80
2018-02-15T20:38:36.748Z,98386.48
2018-02-15T20:59:08.020Z,98397.69
2018-02-15T21:19:42.400Z,98450.42
2018-02-15T21:40:16.410Z,98468.99
2018-02-15T22:00:54.449Z,98497.13
2018-02-15T22:21:31.874Z,98514.73
2018-02-15T22:42:08.988Z,98548.45
2018-02-15T23:02:46.405Z,98566.03
2018-02-15T23:23:21.677Z,98566.69
2018-02-15T23:43:56.079Z,98594.16
